createdAt,value
2022-11-30T00:01:11.610Z,31.53
2022-11-30T00:03:39.187Z,30.73
2022-11-30T00:06:07.551Z,29.37
2022-11-30T00:08:35.107Z,28.30
2022-11-30T00:11:08.355Z,27.50
2022-11-30T00:13:36.862Z,27.00
2022-11-30T00:16:04.994Z,27.57
2022-11-30T00:18:32.383Z,30.20
2022-11-30T00:21:03.079Z,28.77
2022-11-30T00:23:34.008Z,31.47
2022-11-30T00:26:02.485Z,31.00
2022-11-30T00:28:30.196Z,29.20
2022-11-30T00:30:58.506Z,29.90
2022-11-30T00:33:25.910Z,30.73
2022-11-30T00:35:59.784Z,35.87
2022-11-30T00:38:27.032Z,31.17
2022-11-30T00:40:54.499Z,31.77
2022-11-30T00:43:21.763Z,39.40
2022-11-30T00:45:49.174Z,36.33
2022-11-30T00:48:16.519Z,31.70
2022-11-30T00:50:44.112Z,38.37
2022-11-30T00:53:11.382Z,34.73
2022-11-30T00:55:38.639Z,33.60
2022-11-30T00:58:07.517Z,38.53
2022-11-30T01:00:34.835Z,37.10
2022-11-30T01:03:02.972Z,33.40
2022-11-30T01:05:30.437Z,38.07
2022-11-30T01:08:00.272Z,33.57
2022-11-30T01:10:27.582Z,35.07
2022-11-30T01:12:55.319Z,41.30
2022-11-30T01:15:22.897Z,39.43
2022-11-30T01:17:50.165Z,34.57
2022-11-30T01:20:17.423Z,36.17
2022-11-30T01:22:44.675Z,31.30
2022-11-30T01:25:12.150Z,28.40
2022-11-30T01:27:39.402Z,26.23
2022-11-30T01:30:07.022Z,25.53
2022-11-30T01:32:34.228Z,23.03
2022-11-30T01:35:01.499Z,19.80
2022-11-30T01:37:30.196Z,20.50
2022-11-30T01:39:57.562Z,19.17
2022-11-30T01:42:24.946Z,19.97
2022-11-30T01:44:53.767Z,20.83
2022-11-30T01:47:26.638Z,22.33
2022-11-30T01:49:59.743Z,21.67
2022-11-30T01:52:26.960Z,21.00
2022-11-30T01:55:01.808Z,20.33
2022-11-30T01:57:36.792Z,21.80
2022-11-30T02:00:07.580Z,23.87
2022-11-30T02:02:48.587Z,23.60
2022-11-30T02:05:16.940Z,26.57
2022-11-30T02:07:44.388Z,26.23
2022-11-30T02:10:16.159Z,26.77
2022-11-30T02:12:52.598Z,28.47
2022-11-30T02:15:22.294Z,28.23
2022-11-30T02:18:09.906Z,27.43
2022-11-30T02:20:56.301Z,28.27
2022-11-30T02:23:36.547Z,27.03
2022-11-30T02:26:17.289Z,26.03
2022-11-30T02:28:50.739Z,27.03
2022-11-30T02:31:21.896Z,25.07
2022-11-30T02:33:50.676Z,23.87
2022-11-30T02:36:18.590Z,27.20
2022-11-30T02:38:46.820Z,27.43
2022-11-30T02:41:14.141Z,28.90
2022-11-30T02:43:42.329Z,28.73
2022-11-30T02:46:18.898Z,26.77
2022-11-30T02:49:05.267Z,26.33
2022-11-30T02:51:34.496Z,27.10
2022-11-30T02:54:01.784Z,26.93
2022-11-30T02:56:29.085Z,24.67
2022-11-30T02:58:56.346Z,25.53
2022-11-30T03:01:24.243Z,24.80
2022-11-30T03:03:51.555Z,26.27
2022-11-30T03:06:18.777Z,25.63
2022-11-30T03:08:45.957Z,23.50
2022-11-30T03:11:13.211Z,26.47
2022-11-30T03:13:40.405Z,26.20
2022-11-30T03:16:13.478Z,25.00
2022-11-30T03:18:41.333Z,24.00
2022-11-30T03:21:09.697Z,24.77
2022-11-30T03:23:37.156Z,22.00
2022-11-30T03:26:04.847Z,21.27
2022-11-30T03:28:32.194Z,21.13
2022-11-30T03:31:00.379Z,21.13
2022-11-30T03:33:27.641Z,22.87
2022-11-30T03:36:05.800Z,21.63
2022-11-30T03:38:33.550Z,22.17
2022-11-30T03:41:12.560Z,23.80
2022-11-30T03:43:39.823Z,24.77
2022-11-30T03:46:07.245Z,21.73
2022-11-30T03:48:36.236Z,19.63
2022-11-30T03:51:04.398Z,20.93
2022-11-30T03:53:31.988Z,22.40
2022-11-30T03:56:00.548Z,21.07
2022-11-30T03:58:27.869Z,20.67
2022-11-30T04:01:07.306Z,23.50
2022-11-30T04:03:34.900Z,21.20
2022-11-30T04:06:02.364Z,23.77
2022-11-30T04:08:30.360Z,22.07
2022-11-30T04:10:58.895Z,22.20
2022-11-30T04:13:26.759Z,22.80
2022-11-30T04:15:54.731Z,22.37
2022-11-30T04:18:22.995Z,22.33
2022-11-30T04:20:54.203Z,21.17
2022-11-30T04:23:22.173Z,21.90
2022-11-30T04:25:49.511Z,23.23
2022-11-30T04:28:17.516Z,21.97
2022-11-30T04:30:45.897Z,22.67
2022-11-30T04:33:14.287Z,22.27
2022-11-30T04:35:49.130Z,19.93
2022-11-30T04:38:16.545Z,21.80
2022-11-30T04:40:44.628Z,19.90
2022-11-30T04:43:12.405Z,21.00
2022-11-30T04:45:39.875Z,20.53
2022-11-30T04:48:07.638Z,20.10
2022-11-30T04:50:34.999Z,21.33
2022-11-30T04:53:02.303Z,19.33
2022-11-30T04:55:29.569Z,19.70
2022-11-30T04:57:56.928Z,19.63
2022-11-30T05:00:24.554Z,19.10
2022-11-30T05:02:53.396Z,18.57
2022-11-30T05:05:24.735Z,19.60
2022-11-30T05:07:56.135Z,19.70
2022-11-30T05:10:23.823Z,20.90
2022-11-30T05:12:51.406Z,19.70
2022-11-30T05:15:18.991Z,19.20
2022-11-30T05:17:46.395Z,19.17
2022-11-30T05:20:13.831Z,19.37
2022-11-30T05:22:41.788Z,18.90
2022-11-30T05:25:09.720Z,20.87
2022-11-30T05:27:37.730Z,20.03
2022-11-30T05:30:05.963Z,19.47
2022-11-30T05:32:33.575Z,20.13
2022-11-30T05:35:01.289Z,19.00
2022-11-30T05:37:28.939Z,20.53
2022-11-30T05:39:56.692Z,20.27
2022-11-30T05:42:24.310Z,20.97
2022-11-30T05:44:51.723Z,23.40
2022-11-30T05:47:19.495Z,21.47
2022-11-30T05:49:47.302Z,22.37
2022-11-30T05:52:14.739Z,22.50
2022-11-30T05:54:42.621Z,21.40
2022-11-30T05:57:10.125Z,20.57
2022-11-30T05:59:37.784Z,21.23
2022-11-30T06:02:05.469Z,21.70
2022-11-30T06:04:34.822Z,21.77
2022-11-30T06:07:02.357Z,20.73
2022-11-30T06:09:29.795Z,21.33
2022-11-30T06:11:57.386Z,21.53
2022-11-30T06:14:24.629Z,21.90
2022-11-30T06:16:52.167Z,21.87
2022-11-30T06:19:19.455Z,22.63
2022-11-30T06:21:46.797Z,22.53
2022-11-30T06:24:14.150Z,21.30
2022-11-30T06:26:43.594Z,21.60
2022-11-30T06:29:11.176Z,21.93
2022-11-30T06:31:38.414Z,22.13
2022-11-30T06:34:05.807Z,22.37
2022-11-30T06:36:36.309Z,22.93
2022-11-30T06:39:04.078Z,21.87
2022-11-30T06:41:33.605Z,22.53
2022-11-30T06:44:00.765Z,22.70
2022-11-30T06:46:28.215Z,23.63
2022-11-30T06:48:55.792Z,24.10
2022-11-30T06:51:23.133Z,23.37
2022-11-30T06:53:50.440Z,23.60
2022-11-30T06:56:17.715Z,23.07
2022-11-30T06:58:45.042Z,23.23
2022-11-30T07:01:13.630Z,24.00
2022-11-30T07:03:41.517Z,23.43
2022-11-30T07:06:09.450Z,23.37
2022-11-30T07:08:36.909Z,23.90
2022-11-30T07:11:04.741Z,23.97
2022-11-30T07:13:32.121Z,24.13
2022-11-30T07:15:59.432Z,24.40
2022-11-30T07:18:31.650Z,25.30
2022-11-30T07:21:00.940Z,23.53
2022-11-30T07:23:52.278Z,23.97
2022-11-30T07:26:23.334Z,24.23
2022-11-30T07:28:54.838Z,23.83
2022-11-30T07:31:28.392Z,23.00
2022-11-30T07:33:56.314Z,24.27
2022-11-30T07:36:24.965Z,23.43
2022-11-30T07:38:52.276Z,23.40
2022-11-30T07:41:19.765Z,23.57
2022-11-30T07:43:47.098Z,25.60
2022-11-30T07:46:15.495Z,23.70
2022-11-30T07:48:44.033Z,24.07
2022-11-30T07:51:13.389Z,24.37
2022-11-30T07:53:43.399Z,23.97
2022-11-30T07:56:14.769Z,25.03
2022-11-30T07:58:45.016Z,23.37
2022-11-30T08:01:14.071Z,23.97
2022-11-30T08:03:41.558Z,24.43
2022-11-30T08:06:09.883Z,27.03
2022-11-30T08:08:43.132Z,28.50
2022-11-30T08:11:11.835Z,27.80
2022-11-30T08:13:39.634Z,27.90
2022-11-30T08:16:10.273Z,26.37
2022-11-30T08:18:37.672Z,27.33
2022-11-30T08:21:07.132Z,27.13
2022-11-30T08:23:38.039Z,27.07
2022-11-30T08:26:09.595Z,27.07
2022-11-30T08:28:37.235Z,26.93
2022-11-30T08:31:06.117Z,27.37
2022-11-30T08:33:33.795Z,26.00
2022-11-30T08:36:08.187Z,28.43
2022-11-30T08:38:36.019Z,26.67
2022-11-30T08:41:03.532Z,28.17
2022-11-30T08:43:30.866Z,27.80
2022-11-30T08:45:58.616Z,34.80
2022-11-30T08:48:25.969Z,37.97
2022-11-30T08:50:53.257Z,39.83
2022-11-30T08:53:20.518Z,39.13
2022-11-30T08:56:01.737Z,39.10
2022-11-30T08:58:31.331Z,33.77
2022-11-30T09:01:07.755Z,36.53
2022-11-30T09:03:35.142Z,37.53
2022-11-30T09:06:09.934Z,34.03
2022-11-30T09:08:40.907Z,30.33
2022-11-30T09:11:12.685Z,30.40
2022-11-30T09:13:41.121Z,29.10
2022-11-30T09:16:09.186Z,28.23
2022-11-30T09:18:36.699Z,27.27
2022-11-30T09:21:05.453Z,27.97
2022-11-30T09:23:32.752Z,27.10
2022-11-30T09:26:01.459Z,26.53
2022-11-30T09:28:30.758Z,25.97
2022-11-30T09:31:02.526Z,26.53
2022-11-30T09:33:30.009Z,26.50
2022-11-30T09:35:58.482Z,26.97
2022-11-30T09:38:25.810Z,26.63
2022-11-30T09:40:57.659Z,27.77
2022-11-30T09:43:46.021Z,25.93
2022-11-30T09:46:13.602Z,25.37
2022-11-30T09:48:50.263Z,28.50
2022-11-30T09:51:23.694Z,23.87
2022-11-30T09:53:55.780Z,26.27
2022-11-30T09:56:31.740Z,26.07
2022-11-30T09:59:03.236Z,25.43
2022-11-30T10:01:33.063Z,26.77
2022-11-30T10:04:01.778Z,26.20
2022-11-30T10:06:31.924Z,25.03
2022-11-30T10:09:17.485Z,24.43
2022-11-30T10:11:47.565Z,27.23
2022-11-30T10:14:47.406Z,26.50
2022-11-30T10:17:17.880Z,24.27
2022-11-30T10:20:03.905Z,27.40
2022-11-30T10:22:37.360Z,23.73
2022-11-30T10:25:16.989Z,23.83
2022-11-30T10:27:54.041Z,23.47
2022-11-30T10:30:22.757Z,25.10
2022-11-30T10:32:57.409Z,23.90
2022-11-30T10:35:42.331Z,23.20
2022-11-30T10:38:20.872Z,24.20
2022-11-30T10:40:54.712Z,22.43
2022-11-30T10:43:42.532Z,24.53
2022-11-30T10:46:17.402Z,23.03
2022-11-30T10:48:48.218Z,24.27
2022-11-30T10:51:15.568Z,23.50
2022-11-30T10:53:43.228Z,22.17
2022-11-30T10:56:12.284Z,23.83
2022-11-30T10:58:58.071Z,23.00
2022-11-30T11:01:53.622Z,23.93
2022-11-30T11:04:25.442Z,22.93
2022-11-30T11:07:00.261Z,22.50
2022-11-30T11:09:30.651Z,23.27
2022-11-30T11:12:16.822Z,23.07
2022-11-30T11:14:44.280Z,24.17
2022-11-30T11:17:23.954Z,23.00
2022-11-30T11:19:52.125Z,23.43
2022-11-30T11:22:26.584Z,23.03
2022-11-30T11:25:10.381Z,23.33
2022-11-30T11:27:44.245Z,22.73
2022-11-30T11:30:27.368Z,21.90
2022-11-30T11:33:02.853Z,22.90
2022-11-30T11:35:32.958Z,22.37
2022-11-30T11:38:00.273Z,21.83
2022-11-30T11:40:27.574Z,22.83
2022-11-30T11:42:58.376Z,22.80
2022-11-30T11:45:27.228Z,22.87
2022-11-30T11:48:00.411Z,22.83
2022-11-30T11:51:04.994Z,22.80
2022-11-30T11:53:24.220Z,22.83
2022-11-30T11:55:53.516Z,20.70
2022-11-30T11:58:25.967Z,21.53
2022-11-30T12:01:05.740Z,23.10
2022-11-30T12:03:50.845Z,22.43
2022-11-30T12:06:19.618Z,21.80
2022-11-30T12:09:07.827Z,22.80
2022-11-30T12:11:41.411Z,20.70
2022-11-30T12:14:12.804Z,25.60
2022-11-30T12:17:01.087Z,21.93
2022-11-30T12:19:28.452Z,20.87
2022-11-30T12:22:08.296Z,23.63
2022-11-30T12:24:35.559Z,23.67
2022-11-30T12:27:25.779Z,21.23
2022-11-30T12:30:10.075Z,22.07
2022-11-30T12:32:49.375Z,21.70
2022-11-30T12:35:16.665Z,21.33
2022-11-30T12:38:13.553Z,23.10
2022-11-30T12:40:59.785Z,21.50
2022-11-30T12:43:35.774Z,23.40
2022-11-30T12:46:18.130Z,21.53
2022-11-30T12:48:54.512Z,22.10
2022-11-30T12:51:29.734Z,22.57
2022-11-30T12:54:07.660Z,22.57
2022-11-30T12:56:34.940Z,21.63
2022-11-30T12:59:02.248Z,21.40
2022-11-30T13:01:29.593Z,20.93
2022-11-30T13:04:00.921Z,23.03
2022-11-30T13:06:37.175Z,21.27
2022-11-30T13:09:13.861Z,22.63
2022-11-30T13:11:42.396Z,22.43
2022-11-30T13:14:15.003Z,21.60
2022-11-30T13:16:43.432Z,21.70
2022-11-30T13:19:23.259Z,20.63
2022-11-30T13:21:53.361Z,21.73
2022-11-30T13:24:23.733Z,22.60
2022-11-30T13:26:57.891Z,22.97
2022-11-30T13:29:43.871Z,22.50
2022-11-30T13:32:34.297Z,36.20
2022-11-30T13:35:22.309Z,24.50
2022-11-30T13:38:28.382Z,21.60
2022-11-30T13:40:55.134Z,23.13
2022-11-30T13:43:23.121Z,22.20
2022-11-30T13:45:50.933Z,22.03
2022-11-30T13:48:37.847Z,20.90
2022-11-30T13:51:05.376Z,21.80
2022-11-30T13:53:37.691Z,21.73
2022-11-30T13:56:20.294Z,19.80
2022-11-30T13:59:06.592Z,22.03
2022-11-30T14:01:33.992Z,21.23
2022-11-30T14:04:16.841Z,20.63
2022-11-30T14:06:44.281Z,20.57
2022-11-30T14:09:30.269Z,20.90
2022-11-30T14:11:57.789Z,21.23
2022-11-30T14:14:47.107Z,20.63
2022-11-30T14:17:18.804Z,20.73
2022-11-30T14:19:50.881Z,20.50
2022-11-30T14:22:18.672Z,18.73
2022-11-30T14:24:47.203Z,19.97
2022-11-30T14:27:18.982Z,18.13
2022-11-30T14:29:48.862Z,19.40
2022-11-30T14:32:29.356Z,17.40
2022-11-30T14:35:04.418Z,20.27
2022-11-30T14:37:38.629Z,22.43
2022-11-30T14:40:07.192Z,21.23
2022-11-30T14:42:35.373Z,21.57
2022-11-30T14:45:02.749Z,19.43
2022-11-30T14:47:30.202Z,20.57
2022-11-30T14:49:58.970Z,20.20
2022-11-30T14:52:46.233Z,20.17
2022-11-30T14:55:25.663Z,21.33
2022-11-30T14:58:06.954Z,20.20
2022-11-30T15:00:38.495Z,20.57
2022-11-30T15:03:06.578Z,20.73
2022-11-30T15:05:34.137Z,21.87
2022-11-30T15:08:01.620Z,20.70
2022-11-30T15:10:34.238Z,21.63
2022-11-30T15:13:02.292Z,20.53
2022-11-30T15:15:31.463Z,19.43
2022-11-30T15:17:59.031Z,21.20
2022-11-30T15:20:31.529Z,17.77
2022-11-30T15:22:59.928Z,18.57
2022-11-30T15:25:30.541Z,20.23
2022-11-30T15:27:58.906Z,18.87
2022-11-30T15:30:26.263Z,19.67
2022-11-30T15:32:53.727Z,18.70
2022-11-30T15:35:22.915Z,18.20
2022-11-30T15:37:50.910Z,19.13
2022-11-30T15:40:29.946Z,17.47
2022-11-30T15:42:57.642Z,17.77
2022-11-30T15:45:30.142Z,27.13
2022-11-30T15:47:58.996Z,21.73
2022-11-30T15:50:29.271Z,17.90
2022-11-30T15:52:58.962Z,17.63
2022-11-30T15:55:44.674Z,18.00
2022-11-30T15:58:24.315Z,16.47
2022-11-30T16:01:09.372Z,17.13
2022-11-30T16:03:59.778Z,17.87
2022-11-30T16:06:32.770Z,16.47
2022-11-30T16:09:04.105Z,16.97
2022-11-30T16:11:31.483Z,16.60
2022-11-30T16:13:59.015Z,16.93
2022-11-30T16:16:31.454Z,17.03
2022-11-30T16:18:58.848Z,18.67
2022-11-30T16:21:26.396Z,16.67
2022-11-30T16:23:53.859Z,16.53
2022-11-30T16:26:50.485Z,16.93
2022-11-30T16:29:08.692Z,16.03
2022-11-30T16:31:36.598Z,25.83
2022-11-30T16:34:04.005Z,41.73
2022-11-30T16:36:31.407Z,18.27
2022-11-30T16:38:58.791Z,18.83
2022-11-30T16:41:27.368Z,17.17
2022-11-30T16:43:55.525Z,18.40
2022-11-30T16:46:24.710Z,17.13
2022-11-30T16:48:52.235Z,17.63
2022-11-30T16:51:22.298Z,18.43
2022-11-30T16:53:49.693Z,18.03
2022-11-30T16:56:17.387Z,20.33
2022-11-30T16:58:45.191Z,19.00
2022-11-30T17:01:15.362Z,18.30
2022-11-30T17:03:45.961Z,18.97
2022-11-30T17:06:20.648Z,17.63
2022-11-30T17:08:48.288Z,19.23
2022-11-30T17:11:20.552Z,16.87
2022-11-30T17:13:47.960Z,17.20
2022-11-30T17:16:15.383Z,17.53
2022-11-30T17:18:42.909Z,18.53
2022-11-30T17:21:14.634Z,16.10
2022-11-30T17:23:44.805Z,17.60
2022-11-30T17:26:13.075Z,19.03
2022-11-30T17:28:42.157Z,19.63
2022-11-30T17:31:10.678Z,16.37
2022-11-30T17:33:39.624Z,16.47
2022-11-30T17:36:13.564Z,16.40
2022-11-30T17:38:42.337Z,16.57
2022-11-30T17:41:13.030Z,16.87
2022-11-30T17:43:44.629Z,15.20
2022-11-30T17:46:15.913Z,14.97
2022-11-30T17:48:43.805Z,15.40
2022-11-30T17:51:11.491Z,15.77
2022-11-30T17:53:39.579Z,18.37
2022-11-30T17:56:08.842Z,15.40
2022-11-30T17:58:43.510Z,13.53
2022-11-30T18:01:16.848Z,13.73
2022-11-30T18:03:44.490Z,13.60
2022-11-30T18:06:12.117Z,13.53
2022-11-30T18:08:40.256Z,13.23
2022-11-30T18:11:11.676Z,14.90
2022-11-30T18:13:39.752Z,14.27
2022-11-30T18:16:07.939Z,15.23
2022-11-30T18:18:35.182Z,13.53
2022-11-30T18:21:10.269Z,14.80
2022-11-30T18:23:38.081Z,14.60
2022-11-30T18:26:11.261Z,14.63
2022-11-30T18:28:38.869Z,13.27
2022-11-30T18:31:06.811Z,13.83
2022-11-30T18:33:34.909Z,13.53
2022-11-30T18:36:02.424Z,13.67
2022-11-30T18:38:37.022Z,13.50
2022-11-30T18:41:05.407Z,16.80
2022-11-30T18:43:33.880Z,16.60
2022-11-30T18:46:08.869Z,13.27
2022-11-30T18:48:36.397Z,13.47
2022-11-30T18:51:16.724Z,13.67
2022-11-30T18:53:44.046Z,12.17
2022-11-30T18:56:14.020Z,12.27
2022-11-30T18:58:44.069Z,12.20
2022-11-30T19:01:13.261Z,12.03
2022-11-30T19:03:41.820Z,13.93
2022-11-30T19:06:09.837Z,19.50
2022-11-30T19:08:37.307Z,14.03
2022-11-30T19:11:05.736Z,12.47
2022-11-30T19:13:33.415Z,12.73
2022-11-30T19:16:08.078Z,12.90
2022-11-30T19:18:35.642Z,13.00
2022-11-30T19:21:02.938Z,11.63
2022-11-30T19:23:30.155Z,13.37
2022-11-30T19:26:00.788Z,12.73
2022-11-30T19:28:30.160Z,12.77
2022-11-30T19:30:58.350Z,12.33
2022-11-30T19:33:26.087Z,12.83
2022-11-30T19:35:53.344Z,15.93
2022-11-30T19:38:20.688Z,12.07
2022-11-30T19:40:47.998Z,12.80
2022-11-30T19:43:15.259Z,11.70
2022-11-30T19:45:43.103Z,11.83
2022-11-30T19:48:10.388Z,13.37
2022-11-30T19:50:38.001Z,11.97
2022-11-30T19:53:06.039Z,11.17
2022-11-30T19:55:33.668Z,11.70
2022-11-30T19:58:01.200Z,12.17
2022-11-30T20:00:28.673Z,12.10
2022-11-30T20:02:56.779Z,12.60
2022-11-30T20:05:24.473Z,13.00
2022-11-30T20:07:51.885Z,12.87
2022-11-30T20:10:19.332Z,15.87
2022-11-30T20:12:46.986Z,17.23
2022-11-30T20:15:14.447Z,18.87
2022-11-30T20:17:42.035Z,18.70
2022-11-30T20:20:12.020Z,20.47
2022-11-30T20:22:39.581Z,21.27
2022-11-30T20:25:09.042Z,19.77
2022-11-30T20:27:36.341Z,19.93
2022-11-30T20:30:04.410Z,18.60
2022-11-30T20:32:31.635Z,19.17
2022-11-30T20:34:58.957Z,18.57
2022-11-30T20:37:26.410Z,17.47
2022-11-30T20:39:57.432Z,17.60
2022-11-30T20:42:24.828Z,18.57
2022-11-30T20:44:55.140Z,19.10
2022-11-30T20:47:22.448Z,19.20
2022-11-30T20:49:50.191Z,19.63
2022-11-30T20:52:17.431Z,18.27
2022-11-30T20:54:44.664Z,18.83
2022-11-30T20:57:14.832Z,18.57
2022-11-30T20:59:49.526Z,17.23
2022-11-30T21:02:23.537Z,16.60
2022-11-30T21:04:55.705Z,16.93
2022-11-30T21:07:23.094Z,16.23
2022-11-30T21:09:50.343Z,17.27
2022-11-30T21:12:17.617Z,16.93
2022-11-30T21:14:45.143Z,18.87
2022-11-30T21:17:12.608Z,17.47
2022-11-30T21:19:39.880Z,17.00
2022-11-30T21:22:07.161Z,16.40
2022-11-30T21:24:35.174Z,16.13
2022-11-30T21:27:02.386Z,14.43
2022-11-30T21:29:29.804Z,13.77
2022-11-30T21:31:57.148Z,23.20
2022-11-30T21:34:25.552Z,22.93
2022-11-30T21:36:52.868Z,15.30
2022-11-30T21:39:20.362Z,15.07
2022-11-30T21:41:47.664Z,13.87
2022-11-30T21:44:15.716Z,14.83
2022-11-30T21:46:47.185Z,15.60
2022-11-30T21:49:15.993Z,15.77
2022-11-30T21:51:44.096Z,15.73
2022-11-30T21:54:13.017Z,17.00
2022-11-30T21:56:41.307Z,15.93
2022-11-30T21:59:09.674Z,18.23
2022-11-30T22:01:38.298Z,18.07
2022-11-30T22:04:06.611Z,18.87
2022-11-30T22:06:34.826Z,18.23
2022-11-30T22:09:08.039Z,18.33
2022-11-30T22:11:36.172Z,19.70
2022-11-30T22:14:03.642Z,17.87
2022-11-30T22:16:35.941Z,17.10
2022-11-30T22:19:03.518Z,18.10
2022-11-30T22:21:31.517Z,18.73
2022-11-30T22:23:59.685Z,18.50
2022-11-30T22:26:30.958Z,18.10
2022-11-30T22:28:58.179Z,18.47
2022-11-30T22:31:27.273Z,17.17
2022-11-30T22:33:54.838Z,21.33
2022-11-30T22:36:23.060Z,19.00
2022-11-30T22:38:54.795Z,18.83
2022-11-30T22:41:22.327Z,17.37
2022-11-30T22:43:49.677Z,17.17
2022-11-30T22:46:18.581Z,19.30
2022-11-30T22:48:46.351Z,18.07
2022-11-30T22:51:19.191Z,17.70
2022-11-30T22:53:49.711Z,18.13
2022-11-30T22:56:18.608Z,18.27
2022-11-30T22:58:49.626Z,18.40
2022-11-30T23:01:19.099Z,18.07
2022-11-30T23:03:47.664Z,18.40
2022-11-30T23:06:15.841Z,18.77
2022-11-30T23:08:43.631Z,18.83
2022-11-30T23:11:12.217Z,20.10
2022-11-30T23:13:40.317Z,19.87
2022-11-30T23:16:07.742Z,22.73
2022-11-30T23:18:39.792Z,18.80
2022-11-30T23:21:08.276Z,17.73
2022-11-30T23:23:35.607Z,20.50
2022-11-30T23:26:09.926Z,20.30
2022-11-30T23:28:43.335Z,17.80
2022-11-30T23:31:33.683Z,18.33
2022-11-30T23:34:00.532Z,17.63
2022-11-30T23:36:27.766Z,19.40
2022-11-30T23:38:59.553Z,23.27
2022-11-30T23:41:26.867Z,19.73
2022-11-30T23:43:54.181Z,21.30
2022-11-30T23:46:21.927Z,19.17
2022-11-30T23:48:49.541Z,21.20
2022-11-30T23:51:16.800Z,22.53
2022-11-30T23:53:43.998Z,20.50
2022-11-30T23:56:13.318Z,21.80
2022-11-30T23:58:42.061Z,24.23
